Time;durP1;ratioP1;P1;durP2;ratioP2;P2;SDS_P1;SDS_P2;PMS_P1;PMS_P2;Temp;Humidity;BMP_temperature;BMP_pressure;BME280_temperature;BME280_humidity;BME280_pressure;Samples;Min_cycle;Max_cycle;Signal;HPM_P1;HPM_P2
2021/04/27 00:00:08;;;;;;;5.73;4.60;;;;;;;13.70;59.79;94364.34;2980606;39;20136;-84
2021/04/27 00:02:09;;;;;;;6.00;4.35;;;;;;;13.86;59.67;94372.00;2998899;39;20285;-85
2021/04/27 00:04:10;;;;;;;6.25;4.57;;;;;;;13.85;59.03;94356.38;2994437;39;20027;-85
2021/04/27 00:06:12;;;;;;;6.28;4.32;;;;;;;13.71;59.85;94368.63;2987151;39;20048;-86
2021/04/27 00:08:13;;;;;;;9.32;4.25;;;;;;;13.45;60.56;94356.78;2996844;39;20038;-85
2021/04/27 00:10:16;;;;;;;5.93;4.00;;;;;;;13.32;60.99;94372.41;2997035;39;20256;-85
2021/04/27 00:12:19;;;;;;;9.43;4.05;;;;;;;13.08;61.63;94360.34;2987249;39;20040;-84
2021/04/27 00:14:20;;;;;;;6.90;4.80;;;;;;;13.24;61.05;94377.75;2987422;39;20059;-85
2021/04/27 00:16:21;;;;;;;6.60;4.30;;;;;;;13.40;60.66;94364.44;2980551;40;20040;-85
2021/04/27 00:18:23;;;;;;;7.82;4.20;;;;;;;13.60;60.47;94369.09;2993139;39;20342;-84
2021/04/27 00:20:26;;;;;;;7.90;4.22;;;;;;;13.71;60.69;94343.09;2994917;39;20031;-85
2021/04/27 00:22:27;;;;;;;5.82;4.20;;;;;;;13.80;60.35;94350.88;2986319;39;20118;-86
2021/04/27 00:24:31;;;;;;;8.05;4.50;;;;;;;13.90;59.19;94365.38;2997795;39;20055;-83
2021/04/27 00:26:33;;;;;;;6.13;4.00;;;;;;;13.97;58.91;94362.00;2986439;39;20072;-84
2021/04/27 00:28:34;;;;;;;7.28;4.63;;;;;;;14.05;58.59;94349.50;2979212;40;20088;-84
2021/04/27 00:30:36;;;;;;;8.07;3.95;;;;;;;14.10;58.27;94370.81;2994267;39;20296;-84
2021/04/27 00:32:37;;;;;;;5.97;3.83;;;;;;;14.09;58.65;94371.03;2997252;39;20057;-85
2021/04/27 00:34:38;;;;;;;8.48;4.45;;;;;;;14.10;58.19;94370.00;3004099;39;20046;-85
2021/04/27 00:36:40;;;;;;;6.32;4.28;;;;;;;14.11;58.26;94371.63;2988231;39;20064;-85
2021/04/27 00:38:41;;;;;;;8.30;3.83;;;;;;;14.13;57.92;94374.88;2987961;39;20429;-85
2021/04/27 00:40:42;;;;;;;5.72;3.78;;;;;;;14.11;57.48;94376.91;2997052;39;20331;-86
2021/04/27 00:42:46;;;;;;;8.05;4.15;;;;;;;14.17;57.26;94376.16;2996561;39;20420;-85
2021/04/27 00:44:48;;;;;;;7.20;4.03;;;;;;;14.24;57.03;94370.94;2987449;39;20075;-86
2021/04/27 00:46:49;;;;;;;6.35;3.83;;;;;;;14.27;56.87;94366.09;2982856;39;20052;-72
2021/04/27 00:48:51;;;;;;;5.43;3.80;;;;;;;14.33;56.42;94370.63;2989330;39;20344;-71
2021/04/27 00:50:53;;;;;;;6.28;3.67;;;;;;;14.37;56.39;94359.69;2981967;39;20055;-71
2021/04/27 00:52:55;;;;;;;6.30;4.10;;;;;;;14.39;56.08;94347.13;2988660;39;20055;-72
2021/04/27 00:54:56;;;;;;;7.72;4.18;;;;;;;14.38;56.37;94340.25;2974231;39;20052;-72
2021/04/27 00:56:57;;;;;;;5.07;3.47;;;;;;;14.35;56.74;94341.44;2988875;39;20205;-71
2021/04/27 00:58:59;;;;;;;7.13;3.72;;;;;;;14.37;56.34;94349.16;2993147;39;20265;-71
2021/04/27 01:01:00;;;;;;;8.00;4.00;;;;;;;14.37;56.23;94333.34;2991356;39;20051;-72
2021/04/27 01:03:02;;;;;;;6.60;3.70;;;;;;;14.21;56.23;94337.88;2989552;39;20359;-72
2021/04/27 01:05:11;;;;;;;6.10;3.80;;;;;;;14.05;56.89;94351.34;2977974;39;20160;-71
2021/04/27 01:07:13;;;;;;;4.93;3.45;;;;;;;13.58;56.71;94348.22;2968318;39;20052;-72
2021/04/27 01:09:20;;;;;;;7.78;3.85;;;;;;;13.15;57.91;94342.03;2982955;39;20048;-72
2021/04/27 01:11:51;;;;;;;5.00;3.60;;;;;;;13.10;58.74;94345.22;2982592;39;20116;-73
2021/04/27 01:14:13;;;;;;;9.10;2.90;;;;;;;13.05;58.34;94353.63;2989231;39;20088;-72
2021/04/27 01:16:15;;;;;;;6.65;3.67;;;;;;;12.97;57.83;94364.25;2987632;39;20047;-72
2021/04/27 01:18:18;;;;;;;4.70;3.22;;;;;;;12.72;59.08;94349.75;2986758;39;20136;-71
2021/04/27 01:20:37;;;;;;;7.88;4.20;;;;;;;12.61;59.30;94351.81;2979632;39;20084;-72
2021/04/27 01:22:53;;;;;;;5.47;3.10;;;;;;;12.34;60.28;94347.97;2978038;39;20047;-72
2021/04/27 01:24:56;;;;;;;8.57;3.40;;;;;;;12.28;60.44;94344.25;2991749;39;20047;-72
2021/04/27 01:26:59;;;;;;;4.55;2.88;;;;;;;12.17;60.83;94343.84;2975131;39;20100;-73
2021/04/27 01:29:01;;;;;;;4.53;2.88;;;;;;;12.16;60.74;94343.06;2977853;39;20404;-72
2021/04/27 01:31:03;;;;;;;5.05;3.42;;;;;;;12.17;60.71;94342.03;2988676;39;20054;-72
2021/04/27 01:33:09;;;;;;;4.35;2.78;;;;;;;12.28;60.43;94325.88;2978544;39;20314;-72
2021/04/27 01:35:11;;;;;;;3.92;2.72;;;;;;;12.10;60.33;94325.38;2969114;39;20056;-71
2021/04/27 01:37:14;;;;;;;7.05;3.08;;;;;;;12.06;60.16;94327.53;2979770;39;20059;-71
2021/04/27 01:39:15;;;;;;;5.75;3.50;;;;;;;12.13;60.15;94338.16;2984031;39;20301;-71
2021/04/27 01:41:17;;;;;;;5.10;3.22;;;;;;;12.13;60.15;94325.03;2980736;39;20120;-72
2021/04/27 01:43:20;;;;;;;4.05;2.95;;;;;;;12.04;59.94;94331.31;2983524;39;20051;-71
2021/04/27 01:45:21;;;;;;;6.45;3.38;;;;;;;12.05;60.18;94332.97;2984865;39;20063;-73
2021/04/27 01:47:23;;;;;;;5.35;3.17;;;;;;;12.16;59.88;94339.63;2981820;39;20054;-71
2021/04/27 01:49:26;;;;;;;6.18;3.58;;;;;;;12.23;59.44;94336.09;2986806;39;20054;-72
2021/04/27 01:51:28;;;;;;;5.32;3.05;;;;;;;12.19;59.44;94334.81;2983207;39;20297;-71
2021/04/27 01:53:29;;;;;;;6.13;3.28;;;;;;;12.28;59.39;94328.50;2980478;39;20072;-72
2021/04/27 01:55:30;;;;;;;7.05;3.63;;;;;;;12.44;58.50;94321.47;2979896;39;20297;-70
2021/04/27 01:57:31;;;;;;;6.28;3.72;;;;;;;12.49;58.33;94324.34;2989731;39;20059;-72
2021/04/27 01:59:33;;;;;;;5.80;3.10;;;;;;;12.58;58.42;94323.25;2991355;39;20055;-72
2021/04/27 02:01:34;;;;;;;7.28;3.53;;;;;;;12.61;58.72;94312.41;2987342;39;20051;-72
2021/04/27 02:03:41;;;;;;;8.32;3.17;;;;;;;12.63;58.17;94323.56;2988801;39;20044;-75
2021/04/27 02:05:42;;;;;;;6.20;3.45;;;;;;;12.76;58.45;94332.63;2982396;39;20110;-72
2021/04/27 02:07:44;;;;;;;6.78;4.13;;;;;;;12.88;57.57;94336.41;2987869;39;20079;-71
2021/04/27 02:09:45;;;;;;;10.88;3.42;;;;;;;12.96;57.50;94328.44;2988319;39;20047;-71
2021/04/27 02:11:50;;;;;;;6.68;3.60;;;;;;;13.15;57.30;94337.59;2981119;39;20051;-72
2021/04/27 02:13:51;;;;;;;8.00;4.03;;;;;;;13.31;56.65;94333.94;2982913;39;20048;-72
2021/04/27 02:15:53;;;;;;;7.65;3.47;;;;;;;13.40;56.99;94322.34;2982937;39;20067;-71
2021/04/27 02:18:16;;;;;;;8.10;3.70;;;;;;;13.48;56.51;94324.81;2983221;39;20076;-72
2021/04/27 02:20:25;;;;;;;11.00;3.65;;;;;;;13.47;56.34;94327.66;2990869;39;20316;-72
2021/04/27 02:22:27;;;;;;;9.02;3.42;;;;;;;13.47;56.86;94330.31;2983890;39;20540;-72
2021/04/27 02:24:30;;;;;;;5.28;3.10;;;;;;;13.49;56.97;94321.22;2984147;39;20050;-72
2021/04/27 02:26:32;;;;;;;7.50;3.50;;;;;;;13.59;57.00;94326.16;2982496;39;20391;-71
2021/04/27 02:28:34;;;;;;;6.78;3.50;;;;;;;13.37;57.08;94314.78;2993123;39;20043;-72
2021/04/27 02:30:36;;;;;;;6.28;3.25;;;;;;;13.31;57.22;94319.00;2991344;39;20076;-72
2021/04/27 02:32:39;;;;;;;6.22;3.10;;;;;;;13.35;57.36;94314.16;2993828;39;20065;-73
2021/04/27 02:34:42;;;;;;;6.75;3.35;;;;;;;13.39;58.45;94309.34;2994043;39;20051;-71
2021/04/27 02:36:43;;;;;;;4.50;2.88;;;;;;;13.43;57.60;94303.53;2990513;39;20047;-71
2021/04/27 02:38:44;;;;;;;7.32;3.42;;;;;;;13.45;57.62;94295.47;2985852;39;20061;-73
2021/04/27 02:40:53;;;;;;;6.18;3.38;;;;;;;13.44;57.96;94301.72;2988546;39;20200;-72
2021/04/27 02:42:57;;;;;;;7.88;3.20;;;;;;;13.47;58.40;94299.53;2980508;39;20051;-72
2021/04/27 02:44:58;;;;;;;4.60;2.80;;;;;;;13.44;58.00;94309.59;2983951;39;20098;-71
2021/04/27 02:46:59;;;;;;;4.63;3.08;;;;;;;13.48;57.61;94302.97;2995188;39;20050;-72
2021/04/27 02:49:02;;;;;;;6.72;2.95;;;;;;;13.51;57.57;94305.25;2985185;39;20062;-72
2021/04/27 02:51:03;;;;;;;6.93;3.35;;;;;;;13.50;57.63;94295.72;2996158;39;20163;-71
2021/04/27 02:53:05;;;;;;;5.10;3.22;;;;;;;13.49;58.10;94302.78;2991102;39;20047;-73
2021/04/27 02:55:08;;;;;;;5.60;3.78;;;;;;;13.54;57.34;94301.41;2980750;39;20108;-73
2021/04/27 02:57:09;;;;;;;5.88;3.30;;;;;;;13.53;55.37;94305.88;2983817;39;20059;-72
2021/04/27 02:59:11;;;;;;;5.90;3.05;;;;;;;13.45;55.29;94298.09;2992958;39;20047;-71
2021/04/27 03:01:13;;;;;;;4.00;2.70;;;;;;;13.40;54.19;94296.03;2978241;39;20058;-71
2021/04/27 03:03:15;;;;;;;5.53;3.20;;;;;;;13.37;54.50;94306.91;2993459;39;20070;-71
2021/04/27 03:05:16;;;;;;;4.18;2.60;;;;;;;13.36;54.35;94313.19;2983623;39;20098;-72
2021/04/27 03:07:17;;;;;;;5.10;2.97;;;;;;;13.30;54.92;94309.47;2995971;39;20072;-69
2021/04/27 03:09:19;;;;;;;5.00;3.67;;;;;;;13.30;54.78;94306.84;2997411;39;20397;-72
2021/04/27 03:11:20;;;;;;;7.00;2.88;;;;;;;13.26;55.16;94315.25;2993428;39;20334;-73
2021/04/27 03:13:21;;;;;;;4.93;2.90;;;;;;;13.19;55.47;94330.97;2995397;39;20043;-74
2021/04/27 03:15:23;;;;;;;6.13;3.47;;;;;;;13.23;54.67;94328.78;2983925;39;20043;-72
2021/04/27 03:17:24;;;;;;;5.80;3.10;;;;;;;13.20;54.70;94326.50;2995478;39;20042;-72
2021/04/27 03:19:26;;;;;;;4.15;2.75;;;;;;;13.30;55.20;94316.53;2985593;39;20076;-72
2021/04/27 03:21:27;;;;;;;4.65;3.10;;;;;;;13.32;55.24;94317.19;2994504;39;20045;-71
2021/04/27 03:23:28;;;;;;;5.38;3.55;;;;;;;13.31;55.10;94318.16;2991891;39;20039;-71
2021/04/27 03:25:29;;;;;;;5.38;3.03;;;;;;;13.24;55.42;94330.41;2992024;39;20096;-71
2021/04/27 03:27:31;;;;;;;5.93;3.90;;;;;;;13.29;55.17;94320.16;2986954;39;20050;-72
2021/04/27 03:29:33;;;;;;;6.00;3.28;;;;;;;13.34;54.96;94320.44;2988680;39;20105;-84
2021/04/27 03:31:34;;;;;;;9.55;3.42;;;;;;;13.29;55.32;94315.75;2999967;39;20055;-88
2021/04/27 03:33:36;;;;;;;4.43;2.90;;;;;;;13.32;54.95;94309.28;2988241;39;20392;-86
2021/04/27 03:35:37;;;;;;;5.88;3.70;;;;;;;13.37;55.05;94306.91;2993171;39;20067;-85
2021/04/27 03:37:40;;;;;;;6.15;3.63;;;;;;;13.32;55.10;94312.72;3000422;39;20475;-88
2021/04/27 03:39:41;;;;;;;5.50;3.55;;;;;;;13.31;55.22;94308.47;2991339;39;20043;-84
2021/04/27 03:41:42;;;;;;;6.03;3.72;;;;;;;13.34;55.28;94309.09;3002592;39;20080;-83
2021/04/27 03:43:44;;;;;;;8.55;4.00;;;;;;;13.36;54.85;94297.41;2990593;39;20075;-86
2021/04/27 03:45:45;;;;;;;7.00;3.38;;;;;;;13.39;55.13;94304.91;2989614;39;20086;-88
2021/04/27 03:47:47;;;;;;;5.15;3.40;;;;;;;13.47;54.88;94303.97;2998831;39;20034;-88
2021/04/27 03:49:48;;;;;;;6.68;3.85;;;;;;;13.50;55.09;94301.78;2983010;39;20055;-86
2021/04/27 03:51:50;;;;;;;7.10;3.65;;;;;;;13.58;54.92;94313.22;2997841;39;20073;-85
2021/04/27 03:53:51;;;;;;;4.70;3.38;;;;;;;13.59;55.56;94304.28;2987445;39;20043;-86
2021/04/27 03:55:53;;;;;;;5.93;4.03;;;;;;;13.65;55.31;94304.34;2996934;39;20127;-86
2021/04/27 03:57:54;;;;;;;7.97;4.70;;;;;;;13.60;56.20;94317.28;2987898;39;20055;-86
2021/04/27 03:59:56;;;;;;;6.03;4.15;;;;;;;13.59;56.78;94322.72;2998361;39;20039;-82
2021/04/27 04:01:58;;;;;;;6.38;4.47;;;;;;;13.57;57.28;94337.88;2999001;39;20095;-87
2021/04/27 04:03:59;;;;;;;5.57;4.40;;;;;;;13.55;57.95;94345.97;2996418;39;20059;-86
2021/04/27 04:06:00;;;;;;;5.65;3.80;;;;;;;13.52;58.45;94330.53;2987195;39;20079;-86
2021/04/27 04:08:01;;;;;;;6.95;4.30;;;;;;;13.54;58.84;94338.25;2987102;39;20099;-86
2021/04/27 04:10:05;;;;;;;6.78;4.50;;;;;;;13.55;58.92;94342.50;2987156;39;20066;-87
2021/04/27 04:12:07;;;;;;;5.50;3.92;;;;;;;13.55;59.29;94355.66;2987411;39;20394;-86
2021/04/27 04:14:09;;;;;;;6.50;4.28;;;;;;;13.56;59.32;94347.59;2986964;39;20046;-88
2021/04/27 04:16:10;;;;;;;8.77;4.95;;;;;;;13.56;59.55;94344.97;2983531;39;20066;-71
2021/04/27 04:18:11;;;;;;;11.85;5.07;;;;;;;13.58;59.67;94340.34;2993314;39;20295;-73
2021/04/27 04:20:18;;;;;;;8.38;4.85;;;;;;;13.56;60.37;94359.94;2993158;39;20095;-73
2021/04/27 04:22:20;;;;;;;7.95;4.88;;;;;;;13.57;60.07;94343.13;2994711;39;20051;-87
2021/04/27 04:24:21;;;;;;;11.35;4.90;;;;;;;13.46;61.51;94336.53;2989255;39;20335;-86
2021/04/27 04:26:23;;;;;;;7.10;4.65;;;;;;;13.49;60.99;94358.06;2988223;39;20027;-88
2021/04/27 04:28:25;;;;;;;9.63;5.15;;;;;;;13.53;61.06;94342.72;2997465;39;20120;-87
2021/04/27 04:30:26;;;;;;;8.43;5.18;;;;;;;13.41;61.71;94334.47;2987948;39;20020;-87
2021/04/27 04:32:28;;;;;;;14.93;5.82;;;;;;;13.30;62.37;94316.53;2983952;39;20352;-86
2021/04/27 04:34:29;;;;;;;9.43;6.05;;;;;;;13.07;62.85;94319.28;2997871;39;20031;-85
2021/04/27 04:36:30;;;;;;;10.43;5.57;;;;;;;13.15;62.92;94305.22;3001131;39;20067;-85
2021/04/27 04:38:31;;;;;;;8.07;5.60;;;;;;;13.26;62.52;94308.16;2994417;39;20087;-86
2021/04/27 04:40:33;;;;;;;8.15;5.22;;;;;;;13.37;62.35;94322.69;3002577;39;20068;-86
2021/04/27 04:42:34;;;;;;;10.23;5.32;;;;;;;13.30;63.25;94327.06;2997774;39;20414;-88
2021/04/27 04:44:35;;;;;;;9.18;5.82;;;;;;;13.29;63.28;94314.91;2987485;39;20060;-85
2021/04/27 04:46:37;;;;;;;9.95;6.75;;;;;;;13.27;63.43;94316.88;2986023;39;20095;-76
2021/04/27 04:48:39;;;;;;;10.35;5.18;;;;;;;13.24;63.77;94328.56;2982790;39;20437;-73
2021/04/27 04:50:40;;;;;;;9.98;4.82;;;;;;;13.28;63.91;94324.63;2993020;39;20123;-72
2021/04/27 04:52:42;;;;;;;8.50;5.80;;;;;;;13.26;64.16;94320.50;2983911;39;20051;-73
2021/04/27 04:54:43;;;;;;;13.48;6.03;;;;;;;13.34;64.04;94312.53;2993066;39;20694;-74
2021/04/27 04:56:44;;;;;;;10.63;5.63;;;;;;;13.32;63.87;94309.28;2993574;39;20050;-74
2021/04/27 04:58:46;;;;;;;12.38;6.05;;;;;;;13.35;63.45;94305.47;2990230;39;20047;-73
2021/04/27 05:00:47;;;;;;;11.05;7.00;;;;;;;13.34;63.70;94307.28;2989698;39;20147;-75
2021/04/27 05:02:48;;;;;;;9.55;6.40;;;;;;;13.38;63.46;94305.06;2976127;39;20043;-72
2021/04/27 05:04:50;;;;;;;9.73;5.82;;;;;;;13.54;63.22;94304.06;2985128;39;20075;-73
2021/04/27 05:06:59;;;;;;;12.32;5.85;;;;;;;13.62;62.72;94303.94;2987766;39;20051;-73
2021/04/27 05:09:03;;;;;;;8.45;5.15;;;;;;;13.71;62.26;94313.34;2982732;39;20055;-74
2021/04/27 05:11:04;;;;;;;10.40;5.53;;;;;;;13.71;62.79;94308.06;2988255;39;20246;-72
2021/04/27 05:13:05;;;;;;;17.20;6.40;;;;;;;13.71;62.77;94318.59;2992848;39;20090;-73
2021/04/27 05:15:08;;;;;;;12.25;6.38;;;;;;;13.71;62.46;94318.59;2994889;39;20082;-73
2021/04/27 05:17:11;;;;;;;11.23;5.63;;;;;;;13.86;62.21;94311.44;2994554;39;20047;-74
2021/04/27 05:19:12;;;;;;;17.00;6.67;;;;;;;13.93;62.61;94301.78;2991258;39;20415;-72
2021/04/27 05:21:13;;;;;;;11.10;6.18;;;;;;;13.99;62.13;94307.31;2975531;39;20099;-74
2021/04/27 05:23:15;;;;;;;9.52;6.10;;;;;;;13.93;61.27;94304.41;2986721;39;20048;-75
2021/04/27 05:25:17;;;;;;;11.48;5.95;;;;;;;13.86;61.99;94284.31;2980119;39;20365;-72
2021/04/27 05:27:18;;;;;;;10.68;5.60;;;;;;;13.92;61.93;94288.81;2993240;39;20062;-72
2021/04/27 05:29:20;;;;;;;10.73;6.20;;;;;;;13.91;61.94;94293.25;2992083;39;20054;-73
2021/04/27 05:31:21;;;;;;;13.65;6.97;;;;;;;13.92;61.92;94288.81;2993094;39;20063;-74
2021/04/27 05:33:22;;;;;;;10.75;6.28;;;;;;;13.98;61.30;94289.88;2992467;39;20051;-86
2021/04/27 05:35:23;;;;;;;11.13;5.95;;;;;;;13.83;61.37;94290.78;2980301;39;20281;-88
2021/04/27 05:37:24;;;;;;;9.82;6.20;;;;;;;13.52;62.19;94285.81;2984370;39;20412;-88
2021/04/27 05:39:26;;;;;;;8.93;5.35;;;;;;;13.61;62.06;94270.72;2987985;39;20083;-86
2021/04/27 05:41:27;;;;;;;12.43;6.22;;;;;;;13.73;61.80;94283.19;2978836;40;20064;-87
2021/04/27 05:43:28;;;;;;;11.20;6.47;;;;;;;13.89;61.72;94279.47;2987025;39;20079;-86
2021/04/27 05:45:30;;;;;;;11.88;6.30;;;;;;;14.02;61.02;94286.66;2996478;39;20403;-86
2021/04/27 05:47:31;;;;;;;14.77;6.72;;;;;;;14.25;60.06;94289.06;2996313;39;20031;-88
2021/04/27 05:49:32;;;;;;;10.77;6.03;;;;;;;14.34;59.79;94280.00;2986677;39;20444;-86
2021/04/27 05:51:34;;;;;;;9.93;6.22;;;;;;;14.37;59.65;94278.00;2985387;39;20399;-74
2021/04/27 05:53:35;;;;;;;13.15;6.32;;;;;;;14.21;59.38;94277.28;2992728;39;20092;-74
2021/04/27 05:55:40;;;;;;;9.15;6.28;;;;;;;13.71;61.09;94293.09;2977640;39;20224;-74
2021/04/27 05:57:41;;;;;;;8.55;5.72;;;;;;;13.54;62.10;94298.78;2990285;39;20048;-73
2021/04/27 05:59:42;;;;;;;12.07;7.40;;;;;;;13.62;61.39;94288.94;2992533;39;20054;-74
2021/04/27 06:01:44;;;;;;;11.30;6.15;;;;;;;13.73;61.50;94275.28;2991986;39;20140;-74
2021/04/27 06:03:45;;;;;;;12.18;6.40;;;;;;;13.68;61.20;94282.09;2991875;39;20420;-74
2021/04/27 06:05:46;;;;;;;8.63;5.78;;;;;;;13.80;60.61;94277.97;2992813;39;20430;-72
2021/04/27 06:07:47;;;;;;;9.50;6.32;;;;;;;14.00;60.48;94272.88;2983888;39;20046;-74
2021/04/27 06:09:49;;;;;;;9.48;5.70;;;;;;;14.24;59.70;94281.34;2977345;39;20056;-74
2021/04/27 06:11:50;;;;;;;14.95;7.75;;;;;;;14.29;59.26;94281.63;2984195;39;20095;-73
2021/04/27 06:13:51;;;;;;;16.13;7.82;;;;;;;14.10;59.64;94291.00;2991214;39;20101;-73
2021/04/27 06:15:52;;;;;;;11.00;6.95;;;;;;;14.24;59.76;94290.09;2990510;39;20036;-73
2021/04/27 06:17:53;;;;;;;9.50;5.43;;;;;;;14.30;59.50;94289.34;2987671;39;20503;-74
2021/04/27 06:19:54;;;;;;;9.88;6.18;;;;;;;14.02;59.59;94299.03;2982156;39;20059;-75
2021/04/27 06:21:56;;;;;;;9.93;5.80;;;;;;;14.01;59.73;94298.22;2991207;39;20051;-73
2021/04/27 06:23:57;;;;;;;9.60;5.25;;;;;;;13.85;59.91;94307.19;2992371;39;20619;-74
2021/04/27 06:25:59;;;;;;;9.60;5.90;;;;;;;13.88;59.66;94306.00;3000290;39;20046;-74
2021/04/27 06:28:00;;;;;;;14.48;6.63;;;;;;;13.91;59.93;94303.78;2992324;39;20079;-75
2021/04/27 06:30:04;;;;;;;10.25;6.45;;;;;;;13.58;60.49;94302.69;2990468;39;20075;-73
2021/04/27 06:32:05;;;;;;;9.43;5.50;;;;;;;13.56;60.95;94304.69;2992649;39;20345;-75
2021/04/27 06:34:07;;;;;;;9.00;6.82;;;;;;;13.67;60.46;94309.44;2984380;39;20076;-74
2021/04/27 06:36:08;;;;;;;10.43;5.57;;;;;;;13.67;59.92;94315.50;2994118;39;20050;-73
2021/04/27 06:38:16;;;;;;;10.20;6.00;;;;;;;13.71;59.74;94311.50;2984064;39;20043;-73
2021/04/27 06:40:18;;;;;;;12.82;7.05;;;;;;;13.98;59.77;94309.13;2970731;39;20121;-73
2021/04/27 06:42:19;;;;;;;8.77;5.93;;;;;;;14.17;58.97;94315.56;2981926;39;20052;-75
2021/04/27 06:44:21;;;;;;;7.95;5.57;;;;;;;14.45;57.95;94315.56;2985549;39;20062;-73
2021/04/27 06:46:22;;;;;;;10.45;5.43;;;;;;;14.52;57.64;94305.91;2990879;39;20053;-73
2021/04/27 06:48:26;;;;;;;7.07;5.22;;;;;;;14.43;57.67;94303.59;2995013;39;20039;-73
2021/04/27 06:50:27;;;;;;;9.40;4.95;;;;;;;13.99;57.70;94302.03;2992526;39;20640;-72
2021/04/27 06:52:29;;;;;;;9.30;5.07;;;;;;;13.96;58.02;94305.03;2993776;39;20039;-76
2021/04/27 06:54:30;;;;;;;7.78;5.45;;;;;;;14.04;57.89;94304.91;2991812;39;20082;-74
2021/04/27 06:56:32;;;;;;;8.13;5.20;;;;;;;14.22;57.28;94307.91;2994373;39;20427;-75
2021/04/27 06:58:34;;;;;;;11.50;5.80;;;;;;;14.28;57.11;94301.03;2991885;39;20132;-74
2021/04/27 07:00:35;;;;;;;9.55;5.63;;;;;;;14.38;57.33;94308.63;2978624;39;20055;-75
2021/04/27 07:02:37;;;;;;;9.77;6.38;;;;;;;14.36;56.86;94305.38;2992441;39;20453;-73
2021/04/27 07:04:39;;;;;;;8.35;5.70;;;;;;;14.28;56.95;94307.16;2989899;39;20051;-73
2021/04/27 07:06:40;;;;;;;7.50;5.18;;;;;;;14.48;56.85;94301.22;2981667;39;20128;-72
2021/04/27 07:08:43;;;;;;;8.57;5.97;;;;;;;14.64;56.46;94298.28;2998601;39;20426;-86
2021/04/27 07:10:44;;;;;;;10.27;6.10;;;;;;;14.72;56.29;94294.69;2991647;39;20043;-73
2021/04/27 07:12:45;;;;;;;14.43;6.10;;;;;;;14.92;55.68;94300.88;2983889;39;20526;-74
2021/04/27 07:14:46;;;;;;;10.43;4.97;;;;;;;14.94;54.76;94292.78;2988865;39;20363;-75
2021/04/27 07:16:48;;;;;;;10.02;5.47;;;;;;;15.00;54.54;94292.00;2990170;39;20170;-73
2021/04/27 07:18:49;;;;;;;9.13;5.03;;;;;;;15.04;54.76;94301.13;2984372;39;20145;-74
2021/04/27 07:20:51;;;;;;;12.65;6.22;;;;;;;15.10;54.44;94297.72;2993230;39;20434;-74
2021/04/27 07:22:53;;;;;;;17.02;6.22;;;;;;;15.18;54.51;94303.84;2998349;39;20058;-85
2021/04/27 07:24:55;;;;;;;8.88;5.32;;;;;;;15.22;54.23;94305.88;3002767;39;20023;-86
2021/04/27 07:26:57;;;;;;;15.77;5.80;;;;;;;15.27;53.92;94314.03;2993094;39;20043;-89
2021/04/27 07:28:59;;;;;;;7.63;5.03;;;;;;;15.29;53.60;94319.09;2991038;39;20035;-89
2021/04/27 07:31:02;;;;;;;11.18;4.90;;;;;;;15.41;53.81;94316.72;2978122;39;20052;-74
2021/04/27 07:33:04;;;;;;;6.90;4.10;;;;;;;15.41;52.27;94312.25;2991724;39;20059;-73
2021/04/27 07:35:07;;;;;;;8.82;4.78;;;;;;;15.08;52.90;94305.03;2979659;39;20360;-73
2021/04/27 07:37:08;;;;;;;15.93;5.72;;;;;;;15.26;53.46;94296.56;2996810;39;20120;-73
2021/04/27 07:39:11;;;;;;;8.85;5.72;;;;;;;15.36;52.31;94297.00;2992964;39;20070;-74
2021/04/27 07:41:12;;;;;;;8.25;4.43;;;;;;;15.49;52.16;94300.72;2983452;39;20063;-74
2021/04/27 07:43:14;;;;;;;6.45;4.45;;;;;;;15.67;52.14;94314.13;2994003;39;20100;-74
2021/04/27 07:45:16;;;;;;;8.63;4.72;;;;;;;15.81;51.83;94317.66;2993257;39;20058;-74
2021/04/27 07:47:17;;;;;;;9.70;5.00;;;;;;;15.68;51.80;94304.38;2993198;39;20043;-75
2021/04/27 07:49:19;;;;;;;5.53;4.50;;;;;;;15.67;51.38;94297.50;2993502;39;20370;-73
2021/04/27 07:51:20;;;;;;;8.82;5.13;;;;;;;15.74;51.15;94290.41;2993158;39;20071;-73
2021/04/27 07:53:22;;;;;;;9.18;4.10;;;;;;;15.76;51.21;94285.75;2984172;39;20091;-73
2021/04/27 07:55:23;;;;;;;5.93;4.50;;;;;;;15.73;50.91;94283.53;2984616;39;20051;-85
2021/04/27 07:57:25;;;;;;;7.47;4.45;;;;;;;15.84;50.74;94288.19;2979795;39;20043;-89
2021/04/27 07:59:26;;;;;;;6.80;4.07;;;;;;;15.95;49.89;94279.66;2997521;39;20035;-89
2021/04/27 08:01:27;;;;;;;8.27;3.92;;;;;;;16.23;49.75;94276.03;2997047;39;20408;-87
2021/04/27 08:03:29;;;;;;;6.97;4.15;;;;;;;16.40;49.68;94281.69;2997264;39;20035;-88
2021/04/27 08:05:30;;;;;;;6.10;3.75;;;;;;;16.55;48.43;94284.13;2987183;39;20059;-88
2021/04/27 08:07:32;;;;;;;5.88;3.67;;;;;;;16.37;47.23;94275.00;2987713;39;20397;-88
2021/04/27 08:09:33;;;;;;;6.43;4.13;;;;;;;16.13;48.21;94275.59;2996896;39;20058;-87
2021/04/27 08:11:35;;;;;;;6.57;3.45;;;;;;;16.24;49.18;94279.47;2987618;39;20043;-87
2021/04/27 08:13:37;;;;;;;8.13;4.25;;;;;;;16.17;48.60;94287.41;2978779;40;20040;-87
2021/04/27 08:15:38;;;;;;;8.63;5.05;;;;;;;16.26;48.52;94275.63;2996729;39;20031;-89
2021/04/27 08:17:40;;;;;;;12.27;6.18;;;;;;;16.43;48.90;94270.72;2996357;39;20046;-89
2021/04/27 08:19:42;;;;;;;8.25;4.57;;;;;;;16.45;48.76;94271.31;2996845;39;20047;-88
2021/04/27 08:21:44;;;;;;;6.55;4.47;;;;;;;16.56;48.61;94273.34;2987270;39;20028;-90
2021/04/27 08:23:46;;;;;;;7.82;3.97;;;;;;;16.30;48.66;94265.44;2986980;39;20047;-88
2021/04/27 08:25:47;;;;;;;8.05;4.38;;;;;;;16.47;49.04;94271.91;2996501;39;20087;-87
2021/04/27 08:27:50;;;;;;;11.05;5.20;;;;;;;16.73;47.72;94280.81;3005280;39;20338;-88
2021/04/27 08:29:54;;;;;;;8.40;4.95;;;;;;;16.58;47.47;94283.69;2996276;39;20035;-89
2021/04/27 08:31:55;;;;;;;10.18;5.03;;;;;;;16.74;47.76;94277.19;3002861;39;20287;-74
2021/04/27 08:33:57;;;;;;;9.73;5.10;;;;;;;16.95;47.93;94273.47;2983711;39;20044;-73
2021/04/27 08:36:00;;;;;;;4.80;3.85;;;;;;;17.15;47.38;94265.47;2983681;39;20063;-73
2021/04/27 08:38:01;;;;;;;6.93;4.18;;;;;;;16.28;48.39;94260.38;2985745;39;20060;-90
2021/04/27 08:40:05;;;;;;;5.60;4.53;;;;;;;15.99;49.36;94266.88;2979109;39;20306;-87
2021/04/27 08:42:06;;;;;;;8.35;4.28;;;;;;;16.01;49.20;94256.13;2987831;39;20036;-88
2021/04/27 08:44:08;;;;;;;6.38;4.03;;;;;;;16.29;49.75;94253.25;2987423;39;20430;-87
2021/04/27 08:46:09;;;;;;;7.97;4.15;;;;;;;16.43;50.28;94256.69;2997129;39;20064;-89
2021/04/27 08:48:12;;;;;;;8.18;4.30;;;;;;;16.79;49.17;94250.91;2979232;40;20044;-86
2021/04/27 08:50:16;;;;;;;7.03;4.40;;;;;;;16.99;48.09;94249.06;2975887;39;20087;-90
2021/04/27 08:52:18;;;;;;;11.95;5.35;;;;;;;17.18;47.38;94242.03;2987467;39;20039;-88
2021/04/27 08:54:20;;;;;;;7.18;4.15;;;;;;;17.14;46.83;94229.44;2987542;39;20038;-89
2021/04/27 08:56:21;;;;;;;14.00;4.70;;;;;;;16.77;48.81;94229.13;2987499;39;20332;-89
2021/04/27 08:58:22;;;;;;;7.05;4.50;;;;;;;16.78;49.07;94226.28;2996824;39;20047;-87
2021/04/27 09:00:24;;;;;;;7.60;4.50;;;;;;;16.98;48.31;94226.25;2997155;39;20077;-91
2021/04/27 09:02:28;;;;;;;5.95;4.22;;;;;;;17.24;47.59;94232.44;2979770;40;20051;-88
2021/04/27 09:04:40;;;;;;;5.82;4.15;;;;;;;17.52;48.01;94239.22;2988261;39;20040;-88
2021/04/27 09:06:41;;;;;;;7.03;3.97;;;;;;;17.31;46.55;94243.00;2987601;39;20028;-87
2021/04/27 09:08:42;;;;;;;9.05;4.05;;;;;;;17.26;46.82;94248.13;2996206;39;20075;-84
2021/04/27 09:10:45;;;;;;;11.02;4.60;;;;;;;17.31;46.82;94245.63;2996250;39;20061;-91
2021/04/27 09:13:01;;;;;;;5.53;4.13;;;;;;;16.78;47.27;94252.75;2987026;39;20411;-88
2021/04/27 09:15:04;;;;;;;;;;;;;;;16.76;47.71;94267.22;2996868;39;20063;-89
2021/04/27 09:17:10;;;;;;;11.02;5.22;;;;;;;16.53;48.06;94265.81;2987775;39;20359;-89
2021/04/27 09:19:31;;;;;;;6.72;4.57;;;;;;;16.58;48.23;94258.09;2997795;39;20097;-87
2021/04/27 09:21:37;;;;;;;9.38;4.60;;;;;;;16.67;47.82;94266.63;2988748;39;20396;-87
2021/04/27 09:23:44;;;;;;;7.18;4.53;;;;;;;16.68;48.06;94259.50;2987575;39;20031;-87
2021/04/27 09:26:10;;;;;;;7.20;4.20;;;;;;;16.79;47.85;94258.84;2988476;39;20311;-87
2021/04/27 09:28:11;;;;;;;7.78;4.18;;;;;;;16.53;48.07;94244.66;2997819;39;20047;-89
2021/04/27 09:30:19;;;;;;;6.03;4.30;;;;;;;16.46;48.47;94243.06;2997165;39;20305;-87
2021/04/27 09:32:36;;;;;;;9.93;4.63;;;;;;;16.19;48.83;94232.50;2988075;39;20065;-87
2021/04/27 09:34:39;;;;;;;6.05;4.25;;;;;;;15.90;49.83;94229.28;2994194;39;20051;-87